Terminal Aerodrome Forecast
Issued by NWS Cleveland, OH

Home | Current Version | Previous Version | Graphics & Text | Print | Product List | Glossary Off
Versions: 1 2 3 4 5 6 7 8 9 10 11 12 13 14 15 16 17

000
FTUS41 KCLE 042027 AAA
TAFCLE
TAF AMD
KCLE 042027Z 0420/0524 01007KT P6SM SKC
     FM050200 18003KT P6SM SKC
     FM051700 02008KT P6SM SKC=

USA.gov is the U.S. government's official web portal to all federal, state and local government web resources and services.